createdAt,value
2023-04-16T00:00:00.969Z,9.8
2023-04-16T00:03:01.330Z,9.8
2023-04-16T00:06:00.993Z,9.8
2023-04-16T00:09:00.983Z,9.8
2023-04-16T00:12:01.029Z,9.8
2023-04-16T00:15:01.089Z,9.8
2023-04-16T00:18:01.097Z,9.8
2023-04-16T00:21:01.045Z,9.8
2023-04-16T00:24:01.235Z,9.8
2023-04-16T00:27:01.257Z,9.8
2023-04-16T00:30:01.247Z,9.8
2023-04-16T00:33:01.182Z,9.8
2023-04-16T00:36:01.059Z,9.8
2023-04-16T00:39:01.016Z,9.8
2023-04-16T00:42:01.037Z,9.8
2023-04-16T00:45:01.070Z,9.6
2023-04-16T00:48:01.114Z,9.6
2023-04-16T00:51:00.979Z,9.6
2023-04-16T00:54:00.973Z,9.6
2023-04-16T00:57:00.982Z,9.6
2023-04-16T01:00:01.012Z,9.6
2023-04-16T01:03:01.520Z,9.6
2023-04-16T01:06:01.205Z,9.6
2023-04-16T01:09:01.105Z,9.6
2023-04-16T01:12:01.100Z,9.6
2023-04-16T01:15:00.957Z,9.6
2023-04-16T01:18:01.134Z,9.3
2023-04-16T01:21:01.269Z,9.3
2023-04-16T01:24:01.054Z,9.3
2023-04-16T01:27:01.042Z,9.3
2023-04-16T01:30:01.030Z,9.3
2023-04-16T01:33:01.324Z,9.3
2023-04-16T01:36:01.023Z,9.3
2023-04-16T01:39:01.137Z,9.3
2023-04-16T01:42:01.064Z,9.3
2023-04-16T01:45:01.329Z,9.3
2023-04-16T01:48:01.077Z,8.9
2023-04-16T01:51:00.989Z,8.9
2023-04-16T01:54:01.069Z,8.9
2023-04-16T01:57:01.011Z,8.9
2023-04-16T02:00:00.949Z,8.9
2023-04-16T02:03:01.321Z,8.9
2023-04-16T02:06:01.006Z,8.9
2023-04-16T02:09:00.983Z,8.9
2023-04-16T02:12:00.989Z,8.9
2023-04-16T02:15:01.204Z,8.9
2023-04-16T02:18:01.098Z,8.9
2023-04-16T02:21:01.005Z,8.9
2023-04-16T02:24:00.928Z,8.9
2023-04-16T02:27:01.062Z,8.9
2023-04-16T02:30:00.994Z,8.9
2023-04-16T02:33:01.045Z,8.9
2023-04-16T02:36:01.016Z,8.9
2023-04-16T02:39:00.961Z,8.9
2023-04-16T02:42:00.987Z,8.9
2023-04-16T02:45:00.991Z,8.9
2023-04-16T02:48:01.163Z,8.9
2023-04-16T02:51:00.976Z,8.5
2023-04-16T02:54:01.025Z,8.5
2023-04-16T02:57:00.962Z,8.5
2023-04-16T03:00:01.067Z,8.5
2023-04-16T03:03:01.002Z,8.5
2023-04-16T03:06:01.048Z,8.5
2023-04-16T03:09:00.965Z,8.5
2023-04-16T03:12:01.100Z,8.5
2023-04-16T03:15:01.020Z,8.5
2023-04-16T03:18:01.122Z,8.5
2023-04-16T03:21:01.022Z,8.5
2023-04-16T03:24:01.010Z,8.5
2023-04-16T03:27:00.997Z,8.5
2023-04-16T03:30:01.014Z,8.2
2023-04-16T03:33:01.121Z,8.2
2023-04-16T03:36:01.032Z,8.2
2023-04-16T03:39:01.098Z,8.2
2023-04-16T03:42:01.025Z,8.2
2023-04-16T03:45:00.969Z,8.2
2023-04-16T03:48:01.016Z,8.2
2023-04-16T03:51:00.963Z,8.2
2023-04-16T03:54:00.989Z,8.2
2023-04-16T03:57:01.047Z,8.2
2023-04-16T04:00:01.040Z,8.2
2023-04-16T04:03:01.453Z,8.2
2023-04-16T04:06:01.076Z,8.2
2023-04-16T04:09:00.980Z,8.2
2023-04-16T04:12:00.996Z,8.2
2023-04-16T04:15:00.970Z,8.1
2023-04-16T04:18:01.114Z,8.1
2023-04-16T04:21:01.027Z,8.1
2023-04-16T04:24:01.002Z,8.1
2023-04-16T04:27:00.992Z,8.1
2023-04-16T04:30:01.099Z,8.1
2023-04-16T04:33:01.088Z,8.1
2023-04-16T04:36:00.988Z,8.1
2023-04-16T04:39:01.167Z,8.1
2023-04-16T04:42:01.034Z,8.1
2023-04-16T04:45:00.996Z,8.1
2023-04-16T04:48:01.127Z,8.1
2023-04-16T04:51:04.267Z,8.1
2023-04-16T04:54:01.121Z,7.7
2023-04-16T04:57:01.068Z,7.7
2023-04-16T05:00:01.088Z,7.7
2023-04-16T05:03:01.191Z,7.7
2023-04-16T05:06:01.018Z,7.7
2023-04-16T05:09:01.036Z,7.7
2023-04-16T05:12:01.068Z,7.7
2023-04-16T05:15:01.064Z,7.7
2023-04-16T05:18:01.119Z,7.7
2023-04-16T05:21:01.044Z,7.7
2023-04-16T05:24:01.028Z,7.7
2023-04-16T05:27:01.062Z,7.6
2023-04-16T05:30:01.637Z,7.6
2023-04-16T05:33:01.198Z,7.6
2023-04-16T05:36:01.071Z,7.6
2023-04-16T05:39:00.983Z,7.6
2023-04-16T05:42:01.010Z,7.6
2023-04-16T05:45:01.287Z,7.6
2023-04-16T05:48:01.170Z,7.6
2023-04-16T05:51:01.027Z,7.6
2023-04-16T05:54:01.023Z,7.6
2023-04-16T05:57:01.081Z,7.6
2023-04-16T06:00:01.337Z,7.6
2023-04-16T06:03:01.452Z,7.6
2023-04-16T06:06:01.163Z,7.6
2023-04-16T06:09:01.084Z,7.6
2023-04-16T06:12:00.987Z,7.6
2023-04-16T06:15:01.767Z,7.6
2023-04-16T06:18:01.380Z,7.6
2023-04-16T06:21:01.125Z,7.6
2023-04-16T06:24:01.095Z,7.6
2023-04-16T06:27:01.063Z,7.6
2023-04-16T06:30:01.088Z,7.6
2023-04-16T06:33:01.122Z,7.6
2023-04-16T06:36:01.243Z,7.6
2023-04-16T06:39:01.084Z,7.6
2023-04-16T06:42:01.000Z,7.6
2023-04-16T06:45:01.045Z,7.6
2023-04-16T06:48:01.171Z,7.6
2023-04-16T06:51:01.118Z,7.6
2023-04-16T06:54:00.980Z,7.6
2023-04-16T06:57:01.080Z,7.6
2023-04-16T07:00:01.402Z,7.6
2023-04-16T07:03:01.347Z,7.6
2023-04-16T07:06:01.107Z,7.6
2023-04-16T07:09:01.053Z,7.6
2023-04-16T07:12:01.032Z,7.6
2023-04-16T07:15:01.056Z,7.6
2023-04-16T07:18:01.084Z,7.6
2023-04-16T07:21:01.032Z,7.6
2023-04-16T07:24:01.201Z,7.6
2023-04-16T07:27:01.214Z,7.6
2023-04-16T07:30:01.040Z,7.6
2023-04-16T07:33:01.088Z,7.6
2023-04-16T07:36:01.158Z,7.6
2023-04-16T07:39:01.030Z,7.6
2023-04-16T07:42:01.058Z,7.6
2023-04-16T07:45:01.074Z,7.7
2023-04-16T07:48:01.152Z,7.7
2023-04-16T07:51:01.020Z,7.7
2023-04-16T07:54:01.009Z,7.7
2023-04-16T07:57:01.208Z,7.7
2023-04-16T08:00:01.153Z,7.7
2023-04-16T08:03:01.330Z,7.7
2023-04-16T08:06:01.066Z,7.7
2023-04-16T08:09:01.121Z,7.7
2023-04-16T08:12:01.027Z,7.7
2023-04-16T08:15:01.065Z,7.7
2023-04-16T08:18:01.243Z,7.7
2023-04-16T08:21:01.105Z,7.7
2023-04-16T08:24:01.161Z,7.7
2023-04-16T08:27:18.265Z,7.7
2023-04-16T08:30:01.255Z,7.8
2023-04-16T08:33:01.269Z,7.8
2023-04-16T08:36:01.073Z,7.8
2023-04-16T08:39:01.096Z,7.8
2023-04-16T08:42:01.094Z,7.8
2023-04-16T08:45:01.066Z,7.8
2023-04-16T08:48:01.163Z,7.9
2023-04-16T08:51:01.031Z,7.9
2023-04-16T08:54:01.009Z,7.9
2023-04-16T08:57:01.091Z,7.9
2023-04-16T09:00:01.125Z,7.9
2023-04-16T09:03:01.421Z,7.9
2023-04-16T09:06:01.067Z,7.9
2023-04-16T09:09:01.183Z,7.9
2023-04-16T09:12:00.983Z,7.9
2023-04-16T09:15:01.063Z,7.9
2023-04-16T09:18:01.148Z,7.9
2023-04-16T09:21:01.036Z,7.9
2023-04-16T09:24:01.062Z,7.9
2023-04-16T09:27:01.056Z,7.9
2023-04-16T09:30:01.040Z,7.9
2023-04-16T09:33:01.195Z,8.1
2023-04-16T09:36:01.141Z,8.1
2023-04-16T09:39:01.176Z,8.1
2023-04-16T09:42:01.031Z,8.1
2023-04-16T09:45:05.672Z,8.1
2023-04-16T09:48:01.106Z,8.1
2023-04-16T09:51:01.037Z,8.1
2023-04-16T09:54:01.210Z,8.1
2023-04-16T09:57:01.062Z,8.2
2023-04-16T10:00:01.144Z,8.2
2023-04-16T10:03:01.192Z,8.2
2023-04-16T10:06:01.001Z,8.2
2023-04-16T10:09:01.102Z,8.2
2023-04-16T10:12:01.013Z,8.2
2023-04-16T10:15:01.095Z,8.2
2023-04-16T10:18:01.111Z,8.2
2023-04-16T10:21:01.019Z,8.2
2023-04-16T10:24:01.014Z,8.3
2023-04-16T10:27:01.044Z,8.3
2023-04-16T10:30:01.073Z,8.3
2023-04-16T10:33:01.140Z,8.3
2023-04-16T10:36:08.179Z,8.3
2023-04-16T10:39:01.101Z,8.3
2023-04-16T10:42:01.197Z,8.3
2023-04-16T10:45:01.051Z,8.3
2023-04-16T10:48:01.168Z,8.3
2023-04-16T10:51:01.338Z,8.3
2023-04-16T10:54:01.041Z,8.3
2023-04-16T10:57:04.514Z,8.3
2023-04-16T11:00:01.115Z,8.3
2023-04-16T11:03:01.206Z,8.3
2023-04-16T11:06:01.051Z,8.3
2023-04-16T11:09:01.025Z,8.3
2023-04-16T11:12:01.063Z,8.3
2023-04-16T11:15:01.181Z,8.3
2023-04-16T11:18:01.114Z,8.3
2023-04-16T11:21:01.096Z,8.3
2023-04-16T11:24:01.035Z,8.3
2023-04-16T11:27:01.060Z,8.3
2023-04-16T11:30:01.027Z,8.3
2023-04-16T11:33:01.146Z,8.3
2023-04-16T11:36:01.098Z,8.3
2023-04-16T11:39:01.031Z,8.3
2023-04-16T11:42:01.430Z,8.3
2023-04-16T11:45:01.083Z,8.3
2023-04-16T11:48:01.157Z,8.3
2023-04-16T11:51:01.086Z,8.3
2023-04-16T11:54:01.017Z,8.3
2023-04-16T11:57:01.136Z,8.3
2023-04-16T12:00:04.624Z,8.3
2023-04-16T12:03:01.439Z,8.3
2023-04-16T12:06:01.052Z,8.6
2023-04-16T12:09:01.068Z,8.6
2023-04-16T12:12:01.004Z,8.6
2023-04-16T12:15:01.007Z,8.6
2023-04-16T12:18:01.161Z,8.6
2023-04-16T12:21:01.056Z,8.6
2023-04-16T12:24:01.082Z,8.6
2023-04-16T12:27:01.120Z,8.6
2023-04-16T12:30:01.005Z,8.6
2023-04-16T12:33:01.202Z,8.6
2023-04-16T12:36:01.036Z,8.6
2023-04-16T12:39:01.072Z,8.6
2023-04-16T12:42:01.100Z,8.6
2023-04-16T12:45:01.071Z,9.1
2023-04-16T12:48:01.139Z,9.1
2023-04-16T12:51:01.050Z,9.1
2023-04-16T12:54:01.164Z,9.1
2023-04-16T12:57:01.083Z,9.1
2023-04-16T13:00:01.087Z,9.1
2023-04-16T13:03:01.336Z,9.1
2023-04-16T13:06:01.062Z,9.1
2023-04-16T13:09:01.149Z,9.1
2023-04-16T13:12:01.187Z,9.1
2023-04-16T13:15:01.066Z,9.7
2023-04-16T13:18:01.041Z,9.7
2023-04-16T13:21:01.045Z,9.7
2023-04-16T13:24:01.163Z,9.7
2023-04-16T13:27:01.137Z,9.7
2023-04-16T13:30:01.090Z,9.7
2023-04-16T13:33:01.178Z,9.7
2023-04-16T13:36:01.031Z,9.7
2023-04-16T13:39:01.017Z,9.7
2023-04-16T13:42:01.068Z,9.7
2023-04-16T13:45:01.050Z,9.7
2023-04-16T13:48:01.084Z,10.2
2023-04-16T13:51:01.084Z,10.2
2023-04-16T13:54:01.026Z,10.2
2023-04-16T13:57:01.012Z,10.2
2023-04-16T14:00:01.211Z,10.2
2023-04-16T14:03:01.346Z,10.2
2023-04-16T14:06:01.115Z,10.2
2023-04-16T14:09:01.049Z,10.2
2023-04-16T14:12:01.055Z,10.2
2023-04-16T14:15:01.156Z,10.2
2023-04-16T14:18:01.149Z,10.2
2023-04-16T14:21:01.108Z,10.2
2023-04-16T14:24:01.068Z,10.2
2023-04-16T14:27:01.119Z,10.7
2023-04-16T14:30:01.043Z,10.7
2023-04-16T14:33:01.366Z,10.7
2023-04-16T14:36:03.492Z,10.7
2023-04-16T14:39:01.053Z,10.7
2023-04-16T14:42:01.062Z,10.7
2023-04-16T14:45:01.047Z,10.7
2023-04-16T14:48:01.165Z,10.7
2023-04-16T14:51:01.032Z,10.7
2023-04-16T14:54:01.025Z,11.2
2023-04-16T14:57:01.084Z,11.2
2023-04-16T15:00:01.074Z,11.2
2023-04-16T15:03:01.280Z,11.2
2023-04-16T15:06:01.121Z,11.2
2023-04-16T15:09:01.120Z,11.2
2023-04-16T15:12:01.037Z,11.2
2023-04-16T15:15:01.031Z,11.2
2023-04-16T15:18:01.135Z,11.2
2023-04-16T15:21:01.158Z,11.2
2023-04-16T15:24:01.033Z,11.2
2023-04-16T15:27:01.038Z,11.2
2023-04-16T15:30:01.066Z,11.2
2023-04-16T15:33:01.164Z,11.2
2023-04-16T15:36:01.088Z,11.2
2023-04-16T15:39:01.099Z,11.2
2023-04-16T15:42:04.051Z,11.2
2023-04-16T15:45:01.047Z,11.2
2023-04-16T15:48:01.234Z,11.2
2023-04-16T15:51:01.014Z,11.2
2023-04-16T15:54:01.084Z,11.2
2023-04-16T15:57:01.246Z,11.2
2023-04-16T16:00:07.489Z,11.2
2023-04-16T16:03:01.228Z,11.2
2023-04-16T16:06:01.049Z,11.1
2023-04-16T16:09:01.003Z,11.1
2023-04-16T16:12:01.187Z,11.1
2023-04-16T16:15:01.077Z,11.1
2023-04-16T16:18:01.105Z,11.1
2023-04-16T16:21:01.034Z,11.1
2023-04-16T16:24:01.095Z,11.1
2023-04-16T16:27:01.076Z,11.1
2023-04-16T16:30:01.152Z,11.1
2023-04-16T16:33:01.159Z,11.1
2023-04-16T16:36:01.053Z,11.1
2023-04-16T16:39:01.031Z,11.1
2023-04-16T16:42:01.110Z,11.1
2023-04-16T16:45:01.156Z,11.1
2023-04-16T16:48:01.289Z,11.1
2023-04-16T16:51:01.022Z,11.1
2023-04-16T16:54:01.068Z,11.1
2023-04-16T16:57:01.002Z,11.1
2023-04-16T17:00:01.071Z,11.3
2023-04-16T17:03:01.605Z,11.3
2023-04-16T17:06:01.028Z,11.3
2023-04-16T17:09:01.098Z,11.3
2023-04-16T17:12:01.071Z,11.3
2023-04-16T17:15:01.024Z,11.3
2023-04-16T17:18:01.247Z,11.3
2023-04-16T17:21:01.022Z,11.3
2023-04-16T17:24:01.047Z,11.3
2023-04-16T17:27:01.043Z,11.3
2023-04-16T17:30:01.159Z,11.3
2023-04-16T17:33:01.091Z,11.2
2023-04-16T17:36:01.036Z,11.2
2023-04-16T17:39:01.138Z,11.2
2023-04-16T17:42:01.143Z,11.2
2023-04-16T17:45:01.129Z,11.2
2023-04-16T17:48:01.062Z,11.2
2023-04-16T17:51:01.111Z,11
2023-04-16T17:54:01.153Z,11
2023-04-16T17:57:01.101Z,11
2023-04-16T18:00:01.283Z,11
2023-04-16T18:03:01.214Z,11
2023-04-16T18:06:01.041Z,11
2023-04-16T18:09:01.045Z,11
2023-04-16T18:12:01.009Z,10.8
2023-04-16T18:15:01.062Z,10.8
2023-04-16T18:18:00.988Z,10.8
2023-04-16T18:21:01.002Z,10.8
2023-04-16T18:24:01.088Z,10.8
2023-04-16T18:27:01.307Z,10.8
2023-04-16T18:30:01.049Z,10.8
2023-04-16T18:33:53.326Z,10.8
2023-04-16T18:36:00.964Z,10.6
2023-04-16T18:39:02.847Z,10.6
2023-04-16T18:42:01.027Z,10.6
2023-04-16T18:45:01.016Z,10.6
2023-04-16T18:48:00.999Z,10.6
2023-04-16T18:51:00.996Z,10.6
2023-04-16T18:54:01.014Z,10.6
2023-04-16T18:57:01.269Z,10.6
2023-04-16T19:00:01.190Z,10.6
2023-04-16T19:03:01.088Z,10.6
2023-04-16T19:06:00.988Z,10.7
2023-04-16T19:09:01.019Z,10.7
2023-04-16T19:12:01.037Z,10.7
2023-04-16T19:15:01.019Z,10.7
2023-04-16T19:18:01.112Z,10.7
2023-04-16T19:21:01.220Z,10.7
2023-04-16T19:24:00.987Z,10.7
2023-04-16T19:27:00.979Z,10.7
2023-04-16T19:30:01.121Z,10.7
2023-04-16T19:33:01.025Z,10.7
2023-04-16T19:36:00.999Z,10.7
2023-04-16T19:39:00.959Z,10.7
2023-04-16T19:42:01.022Z,10.7
2023-04-16T19:45:01.005Z,10.7
2023-04-16T19:48:01.091Z,10.7
2023-04-16T19:51:00.979Z,10.7
2023-04-16T19:54:00.991Z,10.7
2023-04-16T19:57:00.971Z,10.7
2023-04-16T20:00:01.167Z,10.7
2023-04-16T20:03:01.041Z,10.7
2023-04-16T20:06:00.986Z,10.7
2023-04-16T20:09:01.062Z,10.7
2023-04-16T20:12:01.062Z,10.7
2023-04-16T20:15:01.020Z,10.7
2023-04-16T20:18:01.032Z,10.7
2023-04-16T20:21:00.980Z,10.7
2023-04-16T20:24:01.015Z,10.7
2023-04-16T20:27:01.016Z,10.7
2023-04-16T20:30:01.016Z,10.7
2023-04-16T20:33:01.140Z,10.7
2023-04-16T20:36:01.112Z,10.7
2023-04-16T20:39:01.019Z,10.7
2023-04-16T20:42:01.024Z,10.7
2023-04-16T20:45:00.977Z,10.7
2023-04-16T20:48:01.047Z,10.7
2023-04-16T20:51:01.022Z,10.7
2023-04-16T20:54:00.984Z,10.7
2023-04-16T20:57:02.262Z,10.7
2023-04-16T21:00:01.003Z,10.2
2023-04-16T21:03:01.276Z,10.2
2023-04-16T21:06:01.001Z,10.2
2023-04-16T21:09:01.073Z,10.2
2023-04-16T21:12:01.008Z,10.2
2023-04-16T21:15:00.971Z,10.2
2023-04-16T21:18:01.027Z,10.2
2023-04-16T21:21:01.011Z,10.2
2023-04-16T21:24:01.047Z,10.2
2023-04-16T21:27:01.043Z,10.2
2023-04-16T21:30:01.020Z,10.2
2023-04-16T21:33:01.129Z,10.2
2023-04-16T21:36:00.980Z,10.2
2023-04-16T21:39:01.037Z,10.2
2023-04-16T21:42:01.009Z,10.2
2023-04-16T21:45:00.999Z,10.2
2023-04-16T21:48:01.083Z,10.2
2023-04-16T21:51:01.276Z,10.2
2023-04-16T21:54:01.106Z,10.2
2023-04-16T21:57:00.994Z,10.2
2023-04-16T22:00:01.815Z,10.2
2023-04-16T22:03:01.213Z,10.2
2023-04-16T22:06:01.558Z,10.2
2023-04-16T22:09:00.981Z,10.2
2023-04-16T22:12:00.985Z,10.2
2023-04-16T22:15:03.495Z,10.2
2023-04-16T22:18:01.039Z,10.2
2023-04-16T22:21:01.029Z,10.2
2023-04-16T22:24:00.948Z,10.2
2023-04-16T22:27:01.024Z,10.2
2023-04-16T22:30:01.021Z,10.2
2023-04-16T22:33:01.058Z,10.2
2023-04-16T22:36:01.009Z,10.2
2023-04-16T22:39:00.994Z,10.2
2023-04-16T22:42:00.983Z,10.2
2023-04-16T22:45:01.120Z,10.2
2023-04-16T22:48:01.174Z,10.2
2023-04-16T22:51:00.954Z,9.7
2023-04-16T22:54:01.021Z,9.7
2023-04-16T22:57:00.961Z,9.7
2023-04-16T23:00:01.042Z,9.7
2023-04-16T23:03:01.141Z,9.7
2023-04-16T23:06:01.018Z,9.7
2023-04-16T23:09:01.006Z,9.7
2023-04-16T23:12:00.967Z,9.7
2023-04-16T23:15:01.120Z,9.7
2023-04-16T23:18:01.223Z,9.7
2023-04-16T23:21:01.064Z,9.7
2023-04-16T23:24:00.989Z,9.7
2023-04-16T23:27:00.965Z,9.7
2023-04-16T23:30:01.008Z,9.7
2023-04-16T23:33:01.026Z,9.7
2023-04-16T23:36:01.001Z,9.7
2023-04-16T23:39:00.956Z,9.7
2023-04-16T23:42:01.452Z,9.7
2023-04-16T23:45:00.932Z,9.7
2023-04-16T23:48:01.079Z,9.7
2023-04-16T23:51:01.024Z,9.7
2023-04-16T23:54:01.087Z,9.7
2023-04-16T23:57:01.038Z,9.7
